sensor_id;sensor_type;location;lat;lon;timestamp;P1;durP1;ratioP1;P2;durP2;ratioP2
60436;SDS011;46289;51.992;4.498;2023-06-26T00:01:49;10.52;;;6.00;;
60436;SDS011;46289;51.992;4.498;2023-06-26T00:03:56;12.57;;;6.57;;
60436;SDS011;46289;51.992;4.498;2023-06-26T00:06:01;12.23;;;6.53;;
60436;SDS011;46289;51.992;4.498;2023-06-26T00:08:09;12.85;;;7.00;;
60436;SDS011;46289;51.992;4.498;2023-06-26T00:10:14;12.30;;;6.22;;
60436;SDS011;46289;51.992;4.498;2023-06-26T00:12:20;12.68;;;6.90;;
60436;SDS011;46289;51.992;4.498;2023-06-26T00:14:26;10.93;;;6.35;;
60436;SDS011;46289;51.992;4.498;2023-06-26T00:16:34;12.43;;;6.78;;
60436;SDS011;46289;51.992;4.498;2023-06-26T00:18:40;13.30;;;5.88;;
60436;SDS011;46289;51.992;4.498;2023-06-26T00:20:45;14.70;;;6.82;;
60436;SDS011;46289;51.992;4.498;2023-06-26T00:22:53;11.57;;;5.97;;
60436;SDS011;46289;51.992;4.498;2023-06-26T00:25:03;14.43;;;6.22;;
60436;SDS011;46289;51.992;4.498;2023-06-26T00:27:09;14.77;;;5.97;;
60436;SDS011;46289;51.992;4.498;2023-06-26T00:29:16;13.25;;;6.10;;
60436;SDS011;46289;51.992;4.498;2023-06-26T00:31:22;10.95;;;5.00;;
60436;SDS011;46289;51.992;4.498;2023-06-26T00:33:30;15.40;;;6.07;;
60436;SDS011;46289;51.992;4.498;2023-06-26T00:35:35;14.30;;;5.60;;
60436;SDS011;46289;51.992;4.498;2023-06-26T00:37:41;13.85;;;4.80;;
60436;SDS011;46289;51.992;4.498;2023-06-26T00:39:46;12.05;;;5.07;;
60436;SDS011;46289;51.992;4.498;2023-06-26T00:41:56;15.80;;;5.05;;
60436;SDS011;46289;51.992;4.498;2023-06-26T00:44:08;9.52;;;4.65;;
60436;SDS011;46289;51.992;4.498;2023-06-26T00:46:13;12.43;;;5.25;;
60436;SDS011;46289;51.992;4.498;2023-06-26T00:48:19;11.98;;;5.00;;
60436;SDS011;46289;51.992;4.498;2023-06-26T00:50:29;11.05;;;5.18;;
60436;SDS011;46289;51.992;4.498;2023-06-26T00:52:38;12.63;;;5.10;;
60436;SDS011;46289;51.992;4.498;2023-06-26T00:54:47;11.52;;;5.35;;
60436;SDS011;46289;51.992;4.498;2023-06-26T00:56:55;9.73;;;4.60;;
60436;SDS011;46289;51.992;4.498;2023-06-26T00:59:01;13.27;;;5.28;;
60436;SDS011;46289;51.992;4.498;2023-06-26T01:01:06;12.80;;;6.13;;
60436;SDS011;46289;51.992;4.498;2023-06-26T01:03:19;14.13;;;5.57;;
60436;SDS011;46289;51.992;4.498;2023-06-26T01:05:25;16.30;;;6.18;;
60436;SDS011;46289;51.992;4.498;2023-06-26T01:07:31;14.60;;;5.82;;
60436;SDS011;46289;51.992;4.498;2023-06-26T01:09:37;17.75;;;6.95;;
60436;SDS011;46289;51.992;4.498;2023-06-26T01:11:43;15.10;;;6.05;;
60436;SDS011;46289;51.992;4.498;2023-06-26T01:13:50;14.77;;;6.20;;
60436;SDS011;46289;51.992;4.498;2023-06-26T01:16:00;16.17;;;5.40;;
60436;SDS011;46289;51.992;4.498;2023-06-26T01:18:08;15.73;;;5.47;;
60436;SDS011;46289;51.992;4.498;2023-06-26T01:20:13;16.13;;;6.45;;
60436;SDS011;46289;51.992;4.498;2023-06-26T01:22:23;13.57;;;5.65;;
60436;SDS011;46289;51.992;4.498;2023-06-26T01:26:42;15.57;;;6.43;;
60436;SDS011;46289;51.992;4.498;2023-06-26T01:28:50;16.70;;;6.10;;
60436;SDS011;46289;51.992;4.498;2023-06-26T01:31:01;20.98;;;7.22;;
60436;SDS011;46289;51.992;4.498;2023-06-26T01:33:09;18.67;;;7.45;;
60436;SDS011;46289;51.992;4.498;2023-06-26T01:35:15;18.20;;;7.28;;
60436;SDS011;46289;51.992;4.498;2023-06-26T01:37:23;19.30;;;5.97;;
60436;SDS011;46289;51.992;4.498;2023-06-26T01:39:28;18.23;;;6.78;;
60436;SDS011;46289;51.992;4.498;2023-06-26T01:41:34;14.93;;;6.90;;
60436;SDS011;46289;51.992;4.498;2023-06-26T01:43:47;21.55;;;7.10;;
60436;SDS011;46289;51.992;4.498;2023-06-26T01:48:14;18.73;;;6.65;;
60436;SDS011;46289;51.992;4.498;2023-06-26T01:50:24;17.60;;;6.80;;
60436;SDS011;46289;51.992;4.498;2023-06-26T01:52:35;17.63;;;6.82;;
60436;SDS011;46289;51.992;4.498;2023-06-26T01:54:47;22.58;;;7.47;;
60436;SDS011;46289;51.992;4.498;2023-06-26T01:57:01;19.45;;;7.25;;
60436;SDS011;46289;51.992;4.498;2023-06-26T01:59:09;18.15;;;7.32;;
60436;SDS011;46289;51.992;4.498;2023-06-26T02:01:18;16.98;;;7.03;;
60436;SDS011;46289;51.992;4.498;2023-06-26T02:03:23;20.42;;;7.15;;
60436;SDS011;46289;51.992;4.498;2023-06-26T02:05:30;21.45;;;7.28;;
60436;SDS011;46289;51.992;4.498;2023-06-26T02:07:35;17.17;;;6.93;;
60436;SDS011;46289;51.992;4.498;2023-06-26T02:09:40;16.38;;;6.93;;
60436;SDS011;46289;51.992;4.498;2023-06-26T02:11:46;15.18;;;6.57;;
60436;SDS011;46289;51.992;4.498;2023-06-26T02:13:51;18.50;;;7.15;;
60436;SDS011;46289;51.992;4.498;2023-06-26T02:16:02;21.98;;;6.95;;
60436;SDS011;46289;51.992;4.498;2023-06-26T02:18:08;20.75;;;7.25;;
60436;SDS011;46289;51.992;4.498;2023-06-26T02:20:12;26.00;;;7.53;;
60436;SDS011;46289;51.992;4.498;2023-06-26T02:22:20;19.48;;;7.00;;
60436;SDS011;46289;51.992;4.498;2023-06-26T02:24:28;19.38;;;7.38;;
60436;SDS011;46289;51.992;4.498;2023-06-26T02:26:34;23.15;;;7.63;;
60436;SDS011;46289;51.992;4.498;2023-06-26T02:28:39;18.85;;;6.53;;
60436;SDS011;46289;51.992;4.498;2023-06-26T02:30:45;16.90;;;6.18;;
60436;SDS011;46289;51.992;4.498;2023-06-26T02:32:52;13.23;;;6.05;;
60436;SDS011;46289;51.992;4.498;2023-06-26T02:34:59;21.10;;;6.82;;
60436;SDS011;46289;51.992;4.498;2023-06-26T02:37:06;18.35;;;6.32;;
60436;SDS011;46289;51.992;4.498;2023-06-26T02:39:14;19.55;;;6.93;;
60436;SDS011;46289;51.992;4.498;2023-06-26T02:41:19;18.58;;;6.93;;
60436;SDS011;46289;51.992;4.498;2023-06-26T02:43:25;17.33;;;6.05;;
60436;SDS011;46289;51.992;4.498;2023-06-26T02:45:30;16.40;;;6.10;;
60436;SDS011;46289;51.992;4.498;2023-06-26T02:47:35;15.73;;;5.65;;
60436;SDS011;46289;51.992;4.498;2023-06-26T02:49:45;18.95;;;6.32;;
60436;SDS011;46289;51.992;4.498;2023-06-26T02:51:50;18.02;;;5.95;;
60436;SDS011;46289;51.992;4.498;2023-06-26T02:53:56;14.32;;;5.20;;
60436;SDS011;46289;51.992;4.498;2023-06-26T02:56:01;15.18;;;5.32;;
60436;SDS011;46289;51.992;4.498;2023-06-26T02:58:06;15.95;;;7.18;;
60436;SDS011;46289;51.992;4.498;2023-06-26T03:00:12;11.60;;;5.03;;
60436;SDS011;46289;51.992;4.498;2023-06-26T03:02:18;14.25;;;5.43;;
60436;SDS011;46289;51.992;4.498;2023-06-26T03:04:23;15.13;;;5.85;;
60436;SDS011;46289;51.992;4.498;2023-06-26T03:06:31;15.50;;;5.70;;
60436;SDS011;46289;51.992;4.498;2023-06-26T03:08:36;13.77;;;5.45;;
60436;SDS011;46289;51.992;4.498;2023-06-26T03:10:45;16.23;;;5.47;;
60436;SDS011;46289;51.992;4.498;2023-06-26T03:12:52;16.15;;;5.53;;
60436;SDS011;46289;51.992;4.498;2023-06-26T03:15:02;14.98;;;5.20;;
60436;SDS011;46289;51.992;4.498;2023-06-26T03:17:07;16.58;;;5.97;;
60436;SDS011;46289;51.992;4.498;2023-06-26T03:19:12;15.65;;;5.38;;
60436;SDS011;46289;51.992;4.498;2023-06-26T03:21:18;19.27;;;6.70;;
60436;SDS011;46289;51.992;4.498;2023-06-26T03:23:33;13.23;;;5.30;;
60436;SDS011;46289;51.992;4.498;2023-06-26T03:25:38;15.20;;;5.03;;
60436;SDS011;46289;51.992;4.498;2023-06-26T03:27:43;14.18;;;5.03;;
60436;SDS011;46289;51.992;4.498;2023-06-26T03:29:52;15.50;;;5.10;;
60436;SDS011;46289;51.992;4.498;2023-06-26T03:32:03;11.77;;;4.95;;
60436;SDS011;46289;51.992;4.498;2023-06-26T03:34:08;17.00;;;5.72;;
60436;SDS011;46289;51.992;4.498;2023-06-26T03:36:13;15.98;;;5.43;;
60436;SDS011;46289;51.992;4.498;2023-06-26T03:38:20;14.30;;;4.65;;
60436;SDS011;46289;51.992;4.498;2023-06-26T03:40:33;13.88;;;5.40;;
60436;SDS011;46289;51.992;4.498;2023-06-26T03:42:38;14.98;;;5.93;;
60436;SDS011;46289;51.992;4.498;2023-06-26T03:44:47;15.35;;;5.10;;
60436;SDS011;46289;51.992;4.498;2023-06-26T03:46:55;15.60;;;5.28;;
60436;SDS011;46289;51.992;4.498;2023-06-26T03:49:07;13.02;;;4.75;;
60436;SDS011;46289;51.992;4.498;2023-06-26T03:51:15;15.73;;;7.28;;
60436;SDS011;46289;51.992;4.498;2023-06-26T03:53:21;13.68;;;4.95;;
60436;SDS011;46289;51.992;4.498;2023-06-26T03:55:35;13.20;;;4.57;;
60436;SDS011;46289;51.992;4.498;2023-06-26T03:57:43;12.48;;;4.47;;
60436;SDS011;46289;51.992;4.498;2023-06-26T03:59:48;17.10;;;5.25;;
60436;SDS011;46289;51.992;4.498;2023-06-26T04:01:54;10.25;;;4.53;;
60436;SDS011;46289;51.992;4.498;2023-06-26T04:04:00;15.50;;;4.65;;
60436;SDS011;46289;51.992;4.498;2023-06-26T04:06:07;10.55;;;4.60;;
60436;SDS011;46289;51.992;4.498;2023-06-26T04:08:13;11.93;;;5.28;;
60436;SDS011;46289;51.992;4.498;2023-06-26T04:10:19;12.32;;;4.60;;
60436;SDS011;46289;51.992;4.498;2023-06-26T04:12:33;13.45;;;5.20;;
60436;SDS011;46289;51.992;4.498;2023-06-26T04:14:38;13.52;;;5.07;;
60436;SDS011;46289;51.992;4.498;2023-06-26T04:16:45;12.70;;;5.10;;
60436;SDS011;46289;51.992;4.498;2023-06-26T04:18:51;13.63;;;4.82;;
60436;SDS011;46289;51.992;4.498;2023-06-26T04:21:04;13.00;;;5.32;;
60436;SDS011;46289;51.992;4.498;2023-06-26T04:23:10;11.50;;;4.03;;
60436;SDS011;46289;51.992;4.498;2023-06-26T04:25:16;12.48;;;4.60;;
60436;SDS011;46289;51.992;4.498;2023-06-26T04:27:22;9.93;;;3.97;;
60436;SDS011;46289;51.992;4.498;2023-06-26T04:29:29;15.45;;;4.32;;
60436;SDS011;46289;51.992;4.498;2023-06-26T04:31:35;10.10;;;3.90;;
60436;SDS011;46289;51.992;4.498;2023-06-26T04:33:40;15.70;;;4.32;;
60436;SDS011;46289;51.992;4.498;2023-06-26T04:35:45;7.00;;;3.65;;
60436;SDS011;46289;51.992;4.498;2023-06-26T04:37:53;9.68;;;4.07;;
60436;SDS011;46289;51.992;4.498;2023-06-26T04:40:01;8.40;;;3.75;;
60436;SDS011;46289;51.992;4.498;2023-06-26T04:42:06;9.88;;;3.92;;
60436;SDS011;46289;51.992;4.498;2023-06-26T04:44:14;9.15;;;4.00;;
60436;SDS011;46289;51.992;4.498;2023-06-26T04:46:21;9.57;;;3.80;;
60436;SDS011;46289;51.992;4.498;2023-06-26T04:48:26;10.32;;;4.13;;
60436;SDS011;46289;51.992;4.498;2023-06-26T04:50:38;9.85;;;3.90;;
60436;SDS011;46289;51.992;4.498;2023-06-26T04:52:43;10.38;;;4.18;;
60436;SDS011;46289;51.992;4.498;2023-06-26T04:54:52;11.70;;;4.05;;
60436;SDS011;46289;51.992;4.498;2023-06-26T04:57:02;9.13;;;3.80;;
60436;SDS011;46289;51.992;4.498;2023-06-26T04:59:07;8.75;;;3.58;;
60436;SDS011;46289;51.992;4.498;2023-06-26T05:01:15;10.93;;;4.05;;
60436;SDS011;46289;51.992;4.498;2023-06-26T05:03:22;9.20;;;5.03;;
60436;SDS011;46289;51.992;4.498;2023-06-26T05:05:30;9.25;;;3.60;;
60436;SDS011;46289;51.992;4.498;2023-06-26T05:07:38;11.50;;;4.53;;
60436;SDS011;46289;51.992;4.498;2023-06-26T05:09:43;8.82;;;4.20;;
60436;SDS011;46289;51.992;4.498;2023-06-26T05:11:48;12.60;;;4.47;;
60436;SDS011;46289;51.992;4.498;2023-06-26T05:13:53;8.95;;;3.70;;
60436;SDS011;46289;51.992;4.498;2023-06-26T05:16:03;8.68;;;3.97;;
60436;SDS011;46289;51.992;4.498;2023-06-26T05:18:13;8.75;;;4.03;;
60436;SDS011;46289;51.992;4.498;2023-06-26T05:20:23;9.18;;;4.10;;
60436;SDS011;46289;51.992;4.498;2023-06-26T05:22:34;8.60;;;3.97;;
60436;SDS011;46289;51.992;4.498;2023-06-26T05:24:46;9.80;;;4.55;;
60436;SDS011;46289;51.992;4.498;2023-06-26T05:26:52;7.15;;;3.65;;
60436;SDS011;46289;51.992;4.498;2023-06-26T05:29:02;7.65;;;3.80;;
60436;SDS011;46289;51.992;4.498;2023-06-26T05:31:08;6.25;;;3.25;;
60436;SDS011;46289;51.992;4.498;2023-06-26T05:33:14;7.85;;;3.00;;
60436;SDS011;46289;51.992;4.498;2023-06-26T05:35:33;9.32;;;2.90;;
60436;SDS011;46289;51.992;4.498;2023-06-26T05:37:41;7.32;;;2.90;;
60436;SDS011;46289;51.992;4.498;2023-06-26T05:39:49;6.10;;;3.00;;
60436;SDS011;46289;51.992;4.498;2023-06-26T05:41:56;8.80;;;3.10;;
60436;SDS011;46289;51.992;4.498;2023-06-26T05:44:05;9.20;;;2.83;;
60436;SDS011;46289;51.992;4.498;2023-06-26T05:46:10;6.75;;;2.75;;
60436;SDS011;46289;51.992;4.498;2023-06-26T05:48:21;5.70;;;2.40;;
60436;SDS011;46289;51.992;4.498;2023-06-26T05:50:34;5.22;;;2.30;;
60436;SDS011;46289;51.992;4.498;2023-06-26T05:52:43;9.68;;;3.20;;
60436;SDS011;46289;51.992;4.498;2023-06-26T05:54:52;8.38;;;2.38;;
60436;SDS011;46289;51.992;4.498;2023-06-26T05:57:08;13.60;;;3.33;;
60436;SDS011;46289;51.992;4.498;2023-06-26T05:59:14;7.13;;;2.30;;
60436;SDS011;46289;51.992;4.498;2023-06-26T06:01:20;6.80;;;2.25;;
60436;SDS011;46289;51.992;4.498;2023-06-26T06:03:25;8.27;;;2.30;;
60436;SDS011;46289;51.992;4.498;2023-06-26T06:05:35;6.43;;;2.38;;
60436;SDS011;46289;51.992;4.498;2023-06-26T06:07:40;7.38;;;2.20;;
60436;SDS011;46289;51.992;4.498;2023-06-26T06:09:45;7.80;;;2.47;;
60436;SDS011;46289;51.992;4.498;2023-06-26T06:11:52;7.05;;;2.10;;
60436;SDS011;46289;51.992;4.498;2023-06-26T06:13:59;7.63;;;2.53;;
60436;SDS011;46289;51.992;4.498;2023-06-26T06:16:04;11.88;;;2.80;;
60436;SDS011;46289;51.992;4.498;2023-06-26T06:18:09;4.60;;;2.33;;
60436;SDS011;46289;51.992;4.498;2023-06-26T06:20:14;9.02;;;2.47;;
60436;SDS011;46289;51.992;4.498;2023-06-26T06:22:24;5.95;;;2.08;;
60436;SDS011;46289;51.992;4.498;2023-06-26T06:24:31;6.88;;;2.28;;
60436;SDS011;46289;51.992;4.498;2023-06-26T06:26:38;5.88;;;2.00;;
60436;SDS011;46289;51.992;4.498;2023-06-26T06:28:43;9.52;;;2.40;;
60436;SDS011;46289;51.992;4.498;2023-06-26T06:30:48;7.28;;;2.65;;
60436;SDS011;46289;51.992;4.498;2023-06-26T06:32:54;7.22;;;2.28;;
60436;SDS011;46289;51.992;4.498;2023-06-26T06:35:01;7.30;;;3.00;;
60436;SDS011;46289;51.992;4.498;2023-06-26T06:37:11;6.40;;;2.20;;
60436;SDS011;46289;51.992;4.498;2023-06-26T06:39:19;7.10;;;2.58;;
60436;SDS011;46289;51.992;4.498;2023-06-26T06:41:33;9.13;;;2.50;;
60436;SDS011;46289;51.992;4.498;2023-06-26T06:43:39;5.63;;;2.17;;
60436;SDS011;46289;51.992;4.498;2023-06-26T06:45:44;8.00;;;2.47;;
60436;SDS011;46289;51.992;4.498;2023-06-26T06:47:50;7.40;;;2.50;;
60436;SDS011;46289;51.992;4.498;2023-06-26T06:49:56;6.78;;;2.45;;
60436;SDS011;46289;51.992;4.498;2023-06-26T06:52:05;6.43;;;2.70;;
60436;SDS011;46289;51.992;4.498;2023-06-26T06:54:13;8.98;;;2.40;;
60436;SDS011;46289;51.992;4.498;2023-06-26T06:56:22;7.07;;;2.17;;
60436;SDS011;46289;51.992;4.498;2023-06-26T06:58:31;9.27;;;2.78;;
60436;SDS011;46289;51.992;4.498;2023-06-26T07:00:37;6.20;;;2.40;;
60436;SDS011;46289;51.992;4.498;2023-06-26T07:02:45;8.07;;;2.30;;
60436;SDS011;46289;51.992;4.498;2023-06-26T07:04:51;5.72;;;2.30;;
60436;SDS011;46289;51.992;4.498;2023-06-26T07:07:02;4.15;;;1.90;;
60436;SDS011;46289;51.992;4.498;2023-06-26T07:09:09;8.25;;;2.70;;
60436;SDS011;46289;51.992;4.498;2023-06-26T07:11:14;5.80;;;2.00;;
60436;SDS011;46289;51.992;4.498;2023-06-26T07:13:23;8.52;;;2.83;;
60436;SDS011;46289;51.992;4.498;2023-06-26T07:15:31;7.75;;;2.25;;
60436;SDS011;46289;51.992;4.498;2023-06-26T07:17:36;6.57;;;2.28;;
60436;SDS011;46289;51.992;4.498;2023-06-26T07:19:42;5.80;;;2.05;;
60436;SDS011;46289;51.992;4.498;2023-06-26T07:21:48;6.72;;;2.28;;
60436;SDS011;46289;51.992;4.498;2023-06-26T07:23:53;8.45;;;2.28;;
60436;SDS011;46289;51.992;4.498;2023-06-26T07:25:59;6.65;;;2.70;;
60436;SDS011;46289;51.992;4.498;2023-06-26T07:28:05;6.20;;;2.47;;
60436;SDS011;46289;51.992;4.498;2023-06-26T07:30:17;7.55;;;2.95;;
60436;SDS011;46289;51.992;4.498;2023-06-26T07:32:31;8.82;;;2.30;;
60436;SDS011;46289;51.992;4.498;2023-06-26T07:34:36;5.93;;;3.40;;
60436;SDS011;46289;51.992;4.498;2023-06-26T07:36:41;7.85;;;2.42;;
60436;SDS011;46289;51.992;4.498;2023-06-26T07:38:47;8.55;;;2.50;;
60436;SDS011;46289;51.992;4.498;2023-06-26T07:40:54;8.05;;;2.40;;
60436;SDS011;46289;51.992;4.498;2023-06-26T07:43:01;5.75;;;2.25;;
60436;SDS011;46289;51.992;4.498;2023-06-26T07:45:07;7.45;;;2.25;;
60436;SDS011;46289;51.992;4.498;2023-06-26T07:47:17;6.70;;;2.10;;
60436;SDS011;46289;51.992;4.498;2023-06-26T07:49:22;4.90;;;1.88;;
60436;SDS011;46289;51.992;4.498;2023-06-26T07:51:29;6.30;;;2.00;;
60436;SDS011;46289;51.992;4.498;2023-06-26T07:53:37;4.10;;;1.75;;
60436;SDS011;46289;51.992;4.498;2023-06-26T07:55:42;7.45;;;2.13;;
60436;SDS011;46289;51.992;4.498;2023-06-26T07:57:47;6.15;;;2.08;;
60436;SDS011;46289;51.992;4.498;2023-06-26T07:59:54;5.13;;;2.05;;
60436;SDS011;46289;51.992;4.498;2023-06-26T08:02:02;6.55;;;2.63;;
60436;SDS011;46289;51.992;4.498;2023-06-26T08:04:10;6.97;;;2.10;;
60436;SDS011;46289;51.992;4.498;2023-06-26T08:06:16;6.72;;;2.00;;
60436;SDS011;46289;51.992;4.498;2023-06-26T08:08:22;7.93;;;2.20;;
60436;SDS011;46289;51.992;4.498;2023-06-26T08:10:27;6.28;;;2.05;;
60436;SDS011;46289;51.992;4.498;2023-06-26T08:12:36;6.38;;;2.20;;
60436;SDS011;46289;51.992;4.498;2023-06-26T08:14:42;8.15;;;2.20;;
60436;SDS011;46289;51.992;4.498;2023-06-26T08:16:47;5.63;;;2.55;;
60436;SDS011;46289;51.992;4.498;2023-06-26T08:18:52;6.75;;;2.10;;
60436;SDS011;46289;51.992;4.498;2023-06-26T08:21:02;5.53;;;2.22;;
60436;SDS011;46289;51.992;4.498;2023-06-26T08:23:08;5.70;;;2.05;;
60436;SDS011;46289;51.992;4.498;2023-06-26T08:25:13;10.75;;;2.80;;
60436;SDS011;46289;51.992;4.498;2023-06-26T08:27:19;5.63;;;2.25;;
60436;SDS011;46289;51.992;4.498;2023-06-26T08:29:27;7.40;;;2.50;;
60436;SDS011;46289;51.992;4.498;2023-06-26T08:31:35;6.82;;;2.25;;
60436;SDS011;46289;51.992;4.498;2023-06-26T08:33:41;5.32;;;2.22;;
60436;SDS011;46289;51.992;4.498;2023-06-26T08:35:46;5.68;;;2.20;;
60436;SDS011;46289;51.992;4.498;2023-06-26T08:37:56;5.65;;;2.20;;
60436;SDS011;46289;51.992;4.498;2023-06-26T08:40:05;6.10;;;2.20;;
60436;SDS011;46289;51.992;4.498;2023-06-26T08:42:12;4.20;;;1.88;;
60436;SDS011;46289;51.992;4.498;2023-06-26T08:44:17;8.73;;;2.17;;
60436;SDS011;46289;51.992;4.498;2023-06-26T08:46:26;7.25;;;2.53;;
60436;SDS011;46289;51.992;4.498;2023-06-26T08:48:36;6.32;;;2.38;;
60436;SDS011;46289;51.992;4.498;2023-06-26T08:50:43;5.97;;;2.30;;
60436;SDS011;46289;51.992;4.498;2023-06-26T08:52:50;5.07;;;1.98;;
60436;SDS011;46289;51.992;4.498;2023-06-26T08:55:06;5.68;;;2.00;;
60436;SDS011;46289;51.992;4.498;2023-06-26T08:57:15;5.65;;;2.22;;
60436;SDS011;46289;51.992;4.498;2023-06-26T08:59:25;6.03;;;1.95;;
60436;SDS011;46289;51.992;4.498;2023-06-26T09:01:35;5.50;;;2.30;;
60436;SDS011;46289;51.992;4.498;2023-06-26T09:03:41;4.43;;;2.15;;
60436;SDS011;46289;51.992;4.498;2023-06-26T09:05:50;6.07;;;2.00;;
60436;SDS011;46289;51.992;4.498;2023-06-26T09:08:00;4.60;;;1.85;;
60436;SDS011;46289;51.992;4.498;2023-06-26T09:10:08;3.67;;;2.15;;
60436;SDS011;46289;51.992;4.498;2023-06-26T09:12:17;5.45;;;2.08;;
60436;SDS011;46289;51.992;4.498;2023-06-26T09:14:23;6.43;;;2.13;;
60436;SDS011;46289;51.992;4.498;2023-06-26T09:16:32;5.43;;;2.10;;
60436;SDS011;46289;51.992;4.498;2023-06-26T09:18:46;7.53;;;2.50;;
60436;SDS011;46289;51.992;4.498;2023-06-26T09:20:51;4.63;;;2.08;;
60436;SDS011;46289;51.992;4.498;2023-06-26T09:22:56;5.97;;;2.30;;
60436;SDS011;46289;51.992;4.498;2023-06-26T09:25:08;7.43;;;2.55;;
60436;SDS011;46289;51.992;4.498;2023-06-26T09:27:14;5.25;;;2.47;;
60436;SDS011;46289;51.992;4.498;2023-06-26T09:29:20;5.10;;;2.30;;
60436;SDS011;46289;51.992;4.498;2023-06-26T09:31:25;7.13;;;2.50;;
60436;SDS011;46289;51.992;4.498;2023-06-26T09:33:44;6.05;;;2.60;;
60436;SDS011;46289;51.992;4.498;2023-06-26T09:35:51;3.80;;;2.10;;
60436;SDS011;46289;51.992;4.498;2023-06-26T09:37:56;7.28;;;2.55;;
60436;SDS011;46289;51.992;4.498;2023-06-26T09:40:02;6.32;;;2.20;;
60436;SDS011;46289;51.992;4.498;2023-06-26T09:42:11;7.35;;;2.40;;
60436;SDS011;46289;51.992;4.498;2023-06-26T09:44:19;10.25;;;2.50;;
60436;SDS011;46289;51.992;4.498;2023-06-26T09:46:24;6.20;;;2.65;;
60436;SDS011;46289;51.992;4.498;2023-06-26T09:48:31;6.72;;;2.30;;
60436;SDS011;46289;51.992;4.498;2023-06-26T09:50:36;5.07;;;2.30;;
60436;SDS011;46289;51.992;4.498;2023-06-26T09:52:53;5.57;;;2.30;;
60436;SDS011;46289;51.992;4.498;2023-06-26T09:55:07;7.80;;;2.88;;
60436;SDS011;46289;51.992;4.498;2023-06-26T09:57:16;7.30;;;2.63;;
60436;SDS011;46289;51.992;4.498;2023-06-26T09:59:29;7.65;;;2.30;;
60436;SDS011;46289;51.992;4.498;2023-06-26T10:01:39;4.10;;;2.33;;
60436;SDS011;46289;51.992;4.498;2023-06-26T10:03:46;6.07;;;2.53;;
60436;SDS011;46289;51.992;4.498;2023-06-26T10:05:53;6.68;;;2.17;;
60436;SDS011;46289;51.992;4.498;2023-06-26T10:08:02;6.70;;;2.38;;
60436;SDS011;46289;51.992;4.498;2023-06-26T10:10:09;5.47;;;2.20;;
60436;SDS011;46289;51.992;4.498;2023-06-26T10:12:22;4.82;;;2.22;;
60436;SDS011;46289;51.992;4.498;2023-06-26T10:14:38;6.57;;;2.50;;
60436;SDS011;46289;51.992;4.498;2023-06-26T10:16:48;5.00;;;1.90;;
60436;SDS011;46289;51.992;4.498;2023-06-26T10:18:55;7.50;;;2.55;;
60436;SDS011;46289;51.992;4.498;2023-06-26T10:21:04;4.82;;;2.20;;
60436;SDS011;46289;51.992;4.498;2023-06-26T10:23:12;5.30;;;2.13;;
60436;SDS011;46289;51.992;4.498;2023-06-26T10:25:18;3.25;;;1.90;;
60436;SDS011;46289;51.992;4.498;2023-06-26T10:27:31;4.55;;;2.10;;
60436;SDS011;46289;51.992;4.498;2023-06-26T10:29:41;6.07;;;2.00;;
60436;SDS011;46289;51.992;4.498;2023-06-26T10:31:49;6.38;;;1.83;;
60436;SDS011;46289;51.992;4.498;2023-06-26T10:33:59;6.22;;;1.95;;
60436;SDS011;46289;51.992;4.498;2023-06-26T10:36:14;4.18;;;1.70;;
60436;SDS011;46289;51.992;4.498;2023-06-26T10:38:20;3.97;;;1.90;;
60436;SDS011;46289;51.992;4.498;2023-06-26T10:40:40;3.35;;;1.60;;
60436;SDS011;46289;51.992;4.498;2023-06-26T10:42:49;4.75;;;1.58;;
60436;SDS011;46289;51.992;4.498;2023-06-26T10:44:57;5.32;;;2.03;;
60436;SDS011;46289;51.992;4.498;2023-06-26T10:47:31;6.45;;;1.95;;
60436;SDS011;46289;51.992;4.498;2023-06-26T10:49:40;6.10;;;1.80;;
60436;SDS011;46289;51.992;4.498;2023-06-26T10:52:10;4.38;;;1.70;;
60436;SDS011;46289;51.992;4.498;2023-06-26T10:54:15;4.55;;;1.58;;
60436;SDS011;46289;51.992;4.498;2023-06-26T10:56:21;3.47;;;1.35;;
60436;SDS011;46289;51.992;4.498;2023-06-26T10:58:47;3.88;;;1.70;;
60436;SDS011;46289;51.992;4.498;2023-06-26T11:00:53;5.60;;;1.90;;
60436;SDS011;46289;51.992;4.498;2023-06-26T11:03:27;3.13;;;1.45;;
60436;SDS011;46289;51.992;4.498;2023-06-26T11:05:34;6.60;;;1.98;;
60436;SDS011;46289;51.992;4.498;2023-06-26T11:07:53;4.15;;;1.92;;
60436;SDS011;46289;51.992;4.498;2023-06-26T11:10:13;2.97;;;1.48;;
60436;SDS011;46289;51.992;4.498;2023-06-26T11:12:33;4.07;;;1.55;;
60436;SDS011;46289;51.992;4.498;2023-06-26T11:14:42;4.15;;;1.83;;
60436;SDS011;46289;51.992;4.498;2023-06-26T11:16:50;4.75;;;2.00;;
60436;SDS011;46289;51.992;4.498;2023-06-26T11:19:00;5.20;;;1.67;;
60436;SDS011;46289;51.992;4.498;2023-06-26T11:21:09;4.15;;;1.88;;
60436;SDS011;46289;51.992;4.498;2023-06-26T11:23:16;6.50;;;1.75;;
60436;SDS011;46289;51.992;4.498;2023-06-26T11:25:33;6.68;;;1.90;;
60436;SDS011;46289;51.992;4.498;2023-06-26T11:27:41;4.43;;;1.90;;
60436;SDS011;46289;51.992;4.498;2023-06-26T11:29:50;6.38;;;1.92;;
60436;SDS011;46289;51.992;4.498;2023-06-26T11:32:03;3.05;;;1.73;;
60436;SDS011;46289;51.992;4.498;2023-06-26T11:34:11;6.30;;;1.90;;
60436;SDS011;46289;51.992;4.498;2023-06-26T11:36:17;3.55;;;1.65;;
60436;SDS011;46289;51.992;4.498;2023-06-26T11:38:23;5.93;;;1.95;;
60436;SDS011;46289;51.992;4.498;2023-06-26T11:40:34;4.85;;;1.85;;
60436;SDS011;46289;51.992;4.498;2023-06-26T11:42:44;4.13;;;1.85;;
60436;SDS011;46289;51.992;4.498;2023-06-26T11:44:53;4.00;;;1.90;;
60436;SDS011;46289;51.992;4.498;2023-06-26T11:47:00;4.55;;;1.80;;
60436;SDS011;46289;51.992;4.498;2023-06-26T11:49:05;4.05;;;1.80;;
60436;SDS011;46289;51.992;4.498;2023-06-26T11:51:12;1.50;;;1.40;;
60436;SDS011;46289;51.992;4.498;2023-06-26T11:53:19;4.13;;;1.88;;
60436;SDS011;46289;51.992;4.498;2023-06-26T11:55:40;2.80;;;1.52;;
60436;SDS011;46289;51.992;4.498;2023-06-26T11:57:49;2.53;;;1.52;;
60436;SDS011;46289;51.992;4.498;2023-06-26T12:00:12;2.78;;;1.50;;
60436;SDS011;46289;51.992;4.498;2023-06-26T12:02:20;3.28;;;1.60;;
60436;SDS011;46289;51.992;4.498;2023-06-26T12:04:26;3.83;;;1.52;;
60436;SDS011;46289;51.992;4.498;2023-06-26T12:06:37;5.00;;;1.67;;
60436;SDS011;46289;51.992;4.498;2023-06-26T12:08:44;5.60;;;2.20;;
60436;SDS011;46289;51.992;4.498;2023-06-26T12:10:53;5.35;;;1.90;;
60436;SDS011;46289;51.992;4.498;2023-06-26T12:12:58;3.03;;;1.75;;
60436;SDS011;46289;51.992;4.498;2023-06-26T12:15:05;3.70;;;1.98;;
60436;SDS011;46289;51.992;4.498;2023-06-26T12:17:17;8.45;;;1.88;;
60436;SDS011;46289;51.992;4.498;2023-06-26T12:19:31;4.45;;;1.85;;
60436;SDS011;46289;51.992;4.498;2023-06-26T12:21:45;3.92;;;1.90;;
60436;SDS011;46289;51.992;4.498;2023-06-26T12:23:58;3.13;;;1.80;;
60436;SDS011;46289;51.992;4.498;2023-06-26T12:26:17;7.85;;;1.90;;
60436;SDS011;46289;51.992;4.498;2023-06-26T12:28:23;5.05;;;1.60;;
60436;SDS011;46289;51.992;4.498;2023-06-26T12:30:29;4.72;;;1.85;;
60436;SDS011;46289;51.992;4.498;2023-06-26T12:32:37;5.18;;;1.98;;
60436;SDS011;46289;51.992;4.498;2023-06-26T12:34:46;2.67;;;1.50;;
60436;SDS011;46289;51.992;4.498;2023-06-26T12:37:00;1.98;;;1.60;;
60436;SDS011;46289;51.992;4.498;2023-06-26T12:39:08;3.83;;;1.70;;
60436;SDS011;46289;51.992;4.498;2023-06-26T12:41:14;4.00;;;1.95;;
60436;SDS011;46289;51.992;4.498;2023-06-26T12:43:26;4.35;;;2.05;;
60436;SDS011;46289;51.992;4.498;2023-06-26T12:45:38;7.45;;;2.35;;
60436;SDS011;46289;51.992;4.498;2023-06-26T12:47:47;8.10;;;2.00;;
60436;SDS011;46289;51.992;4.498;2023-06-26T12:49:53;3.45;;;1.83;;
60436;SDS011;46289;51.992;4.498;2023-06-26T12:52:02;4.75;;;2.05;;
60436;SDS011;46289;51.992;4.498;2023-06-26T12:54:10;6.88;;;1.80;;